createdAt,value
2018-10-11T00:02:23.427Z,88.10
2018-10-11T00:04:50.626Z,88.40
2018-10-11T00:07:17.827Z,88.50
2018-10-11T00:09:45.003Z,88.80
2018-10-11T00:12:12.341Z,88.60
2018-10-11T00:14:39.534Z,88.40
2018-10-11T00:17:06.909Z,88.70
2018-10-11T00:19:34.086Z,88.40
2018-10-11T00:22:01.295Z,88.60
2018-10-11T00:24:28.468Z,88.60
2018-10-11T00:26:55.687Z,88.60
2018-10-11T00:29:23.009Z,88.60
2018-10-11T00:31:50.352Z,88.60
2018-10-11T00:34:17.529Z,88.60
2018-10-11T00:36:44.714Z,88.70
2018-10-11T00:39:11.889Z,89.00
2018-10-11T00:41:39.102Z,89.40
2018-10-11T00:44:15.046Z,89.60
2018-10-11T00:46:43.295Z,89.60
2018-10-11T00:49:10.482Z,89.60
2018-10-11T00:51:37.668Z,89.90
2018-10-11T00:54:04.844Z,90.10
2018-10-11T00:59:05.952Z,90.30
2018-10-11T01:01:33.144Z,90.30
2018-10-11T01:04:00.318Z,90.50
2018-10-11T01:06:27.515Z,90.50
2018-10-11T01:08:54.694Z,90.50
2018-10-11T01:11:21.904Z,90.50
2018-10-11T01:13:49.125Z,90.50
2018-10-11T01:16:16.352Z,90.40
2018-10-11T01:18:43.531Z,90.20
2018-10-11T01:21:10.721Z,90.10
2018-10-11T01:23:38.378Z,90.00
2018-10-11T01:26:05.531Z,89.60
2018-10-11T01:28:32.714Z,90.00
2018-10-11T01:31:05.754Z,90.00
2018-10-11T01:33:32.962Z,90.30
2018-10-11T01:36:00.130Z,90.30
2018-10-11T01:38:27.341Z,90.60
2018-10-11T01:40:54.824Z,90.80
2018-10-11T01:43:21.998Z,90.50
2018-10-11T01:45:49.214Z,90.50
2018-10-11T01:48:16.408Z,90.70
2018-10-11T01:50:43.597Z,90.70
2018-10-11T01:53:10.825Z,90.80
2018-10-11T01:55:38.011Z,90.80
2018-10-11T01:58:05.233Z,90.90
2018-10-11T02:00:32.409Z,90.70
2018-10-11T02:02:59.710Z,90.20
2018-10-11T02:05:27.452Z,90.40
2018-10-11T02:07:55.646Z,90.60
2018-10-11T02:10:22.822Z,90.60
2018-10-11T02:12:50.257Z,90.60
2018-10-11T02:15:17.693Z,90.40
2018-10-11T02:17:44.908Z,90.40
2018-10-11T02:20:12.081Z,90.40
2018-10-11T02:22:39.668Z,90.40
2018-10-11T02:25:06.874Z,90.40
2018-10-11T02:27:34.049Z,90.40
2018-10-11T02:30:01.229Z,90.40
2018-10-11T02:32:28.401Z,90.50
2018-10-11T02:34:55.738Z,90.90
2018-10-11T02:37:23.090Z,90.80
2018-10-11T02:39:50.278Z,91.20
2018-10-11T02:42:17.449Z,90.90
2018-10-11T02:44:44.641Z,91.40
2018-10-11T02:47:11.823Z,91.10
2018-10-11T02:49:39.273Z,91.30
2018-10-11T02:52:06.478Z,91.20
2018-10-11T02:54:33.671Z,91.00
2018-10-11T02:57:02.953Z,91.10
2018-10-11T02:59:32.301Z,91.00
2018-10-11T03:02:00.727Z,91.40
2018-10-11T03:04:28.592Z,91.20
2018-10-11T03:06:56.054Z,91.10
2018-10-11T03:09:23.613Z,91.50
2018-10-11T03:11:50.862Z,91.70
2018-10-11T03:14:18.080Z,91.70
2018-10-11T03:16:45.249Z,91.80
2018-10-11T03:19:12.456Z,91.80
2018-10-11T03:21:39.669Z,91.70
2018-10-11T03:24:06.942Z,91.70
2018-10-11T03:26:34.164Z,91.90
2018-10-11T03:29:01.336Z,92.10
2018-10-11T03:31:28.511Z,92.20
2018-10-11T03:33:55.701Z,92.00
2018-10-11T03:36:22.889Z,91.30
2018-10-11T03:38:50.082Z,91.40
2018-10-11T03:41:17.269Z,91.30
2018-10-11T03:43:44.465Z,91.60
2018-10-11T03:46:11.652Z,92.00
2018-10-11T03:48:38.930Z,92.10
2018-10-11T03:51:06.155Z,92.50
2018-10-11T03:53:33.329Z,92.90
2018-10-11T03:56:00.606Z,92.90
2018-10-11T03:58:28.146Z,93.10
2018-10-11T04:00:55.379Z,93.10
2018-10-11T04:03:22.591Z,92.90
2018-10-11T04:05:49.855Z,93.00
2018-10-11T04:08:17.030Z,92.40
2018-10-11T04:10:44.216Z,92.00
2018-10-11T04:13:11.666Z,91.70
2018-10-11T04:15:38.993Z,91.90
2018-10-11T04:18:06.329Z,92.40
2018-10-11T04:20:33.525Z,91.90
2018-10-11T04:23:00.713Z,91.40
2018-10-11T04:25:27.904Z,91.60
2018-10-11T04:27:55.124Z,92.50
2018-10-11T04:30:22.318Z,92.50
2018-10-11T04:32:49.482Z,91.90
2018-10-11T04:35:16.682Z,92.00
2018-10-11T04:37:43.872Z,92.20
2018-10-11T04:40:11.048Z,92.60
2018-10-11T04:42:38.289Z,92.30
2018-10-11T04:45:05.489Z,91.50
2018-10-11T04:47:32.661Z,90.30
2018-10-11T04:49:59.834Z,91.20
2018-10-11T04:52:27.020Z,91.80
2018-10-11T04:54:54.228Z,91.90
2018-10-11T04:57:21.400Z,91.70
2018-10-11T04:59:48.648Z,91.60
2018-10-11T05:02:15.758Z,91.50
2018-10-11T05:04:42.968Z,91.40
2018-10-11T05:07:10.312Z,91.40
2018-10-11T05:09:37.530Z,91.80
2018-10-11T05:12:05.320Z,91.90
2018-10-11T05:14:32.546Z,91.60
2018-10-11T05:16:59.753Z,91.00
2018-10-11T05:19:27.005Z,90.20
2018-10-11T05:21:54.459Z,87.80
2018-10-11T05:24:21.661Z,89.10
2018-10-11T05:26:48.862Z,90.30
2018-10-11T05:29:16.034Z,90.60
2018-10-11T05:31:43.375Z,91.30
2018-10-11T05:34:10.577Z,91.60
2018-10-11T05:36:37.760Z,91.60
2018-10-11T05:39:05.916Z,92.40
2018-10-11T05:41:33.149Z,89.60
2018-10-11T05:44:00.373Z,90.00
2018-10-11T05:46:29.569Z,90.40
2018-10-11T05:48:57.708Z,91.60
2018-10-11T05:51:25.153Z,92.50
2018-10-11T05:53:53.407Z,92.30
2018-10-11T05:56:21.733Z,90.80
2018-10-11T05:58:49.725Z,90.50
2018-10-11T06:01:17.023Z,91.00
2018-10-11T06:03:44.532Z,91.00
2018-10-11T06:06:11.818Z,90.30
2018-10-11T06:08:39.066Z,90.00
2018-10-11T06:11:06.316Z,90.80
2018-10-11T06:13:33.564Z,90.70
2018-10-11T06:16:01.069Z,90.50
2018-10-11T06:18:28.296Z,90.80
2018-10-11T06:20:55.654Z,91.60
2018-10-11T06:23:22.984Z,92.10
2018-10-11T06:25:50.226Z,92.60
2018-10-11T06:28:17.477Z,92.90
2018-10-11T06:30:44.756Z,93.10
2018-10-11T06:33:12.210Z,93.20
2018-10-11T06:35:39.483Z,92.60
2018-10-11T06:38:06.745Z,92.80
2018-10-11T06:40:35.190Z,92.80
2018-10-11T06:43:02.425Z,92.80
2018-10-11T06:45:29.682Z,92.70
2018-10-11T06:48:00.384Z,92.50
2018-10-11T06:50:27.705Z,92.60
2018-10-11T06:52:54.908Z,92.30
2018-10-11T06:55:22.138Z,92.60
2018-10-11T06:57:49.334Z,92.60
2018-10-11T07:00:16.504Z,92.50
2018-10-11T07:02:43.696Z,92.50
2018-10-11T07:05:17.642Z,92.30
2018-10-11T07:07:44.846Z,92.30
2018-10-11T07:10:18.859Z,92.70
2018-10-11T07:12:46.129Z,92.90
2018-10-11T07:15:13.376Z,92.80
2018-10-11T07:17:40.681Z,92.90
2018-10-11T07:20:08.290Z,92.60
2018-10-11T07:22:35.477Z,93.00
2018-10-11T07:25:02.710Z,93.10
2018-10-11T07:27:29.921Z,93.00
2018-10-11T07:29:57.152Z,93.20
2018-10-11T07:32:24.329Z,92.90
2018-10-11T07:34:51.547Z,93.10
2018-10-11T07:37:18.758Z,92.80
2018-10-11T07:39:45.953Z,93.20
2018-10-11T07:44:47.148Z,93.00
2018-10-11T07:47:14.401Z,93.20
2018-10-11T07:49:41.548Z,92.90
2018-10-11T07:52:09.006Z,92.90
2018-10-11T07:54:36.287Z,92.60
2018-10-11T07:57:03.709Z,92.10
2018-10-11T07:59:30.894Z,92.20
2018-10-11T08:01:58.082Z,92.00
2018-10-11T08:04:25.265Z,92.10
2018-10-11T08:06:52.481Z,92.00
2018-10-11T08:09:19.676Z,90.70
2018-10-11T08:11:46.998Z,90.80
2018-10-11T08:14:14.609Z,91.10
2018-10-11T08:16:41.918Z,90.90
2018-10-11T08:19:09.265Z,90.40
2018-10-11T08:21:36.248Z,90.60
2018-10-11T08:24:03.605Z,90.30
2018-10-11T08:26:31.119Z,89.10
2018-10-11T08:28:57.969Z,90.10
2018-10-11T08:31:25.166Z,90.10
2018-10-11T08:33:52.354Z,90.40
2018-10-11T08:36:19.537Z,90.20
2018-10-11T08:38:46.722Z,90.10
2018-10-11T08:41:13.896Z,90.10
2018-10-11T08:43:41.075Z,89.50
2018-10-11T08:46:08.302Z,88.80
2018-10-11T08:48:35.481Z,89.40
2018-10-11T08:51:02.684Z,89.70
2018-10-11T08:53:29.900Z,89.50
2018-10-11T08:55:57.103Z,88.80
2018-10-11T08:58:24.217Z,88.20
2018-10-11T09:00:51.468Z,88.20
2018-10-11T09:03:19.467Z,87.70
2018-10-11T09:05:46.604Z,87.70
2018-10-11T09:08:13.777Z,86.50
2018-10-11T09:10:41.018Z,86.90
2018-10-11T09:13:08.249Z,86.80
2018-10-11T09:15:35.518Z,87.00
2018-10-11T09:18:02.713Z,86.80
2018-10-11T09:20:29.908Z,87.10
2018-10-11T09:22:57.158Z,86.70
2018-10-11T09:25:24.386Z,85.50
2018-10-11T09:27:51.548Z,85.40
2018-10-11T09:30:18.848Z,84.20
2018-10-11T09:32:46.014Z,84.00
2018-10-11T09:35:13.208Z,84.00
2018-10-11T09:37:40.385Z,85.00
2018-10-11T09:40:07.943Z,84.80
2018-10-11T09:42:35.124Z,84.60
2018-10-11T09:45:02.316Z,84.40
2018-10-11T09:47:29.485Z,84.90
2018-10-11T09:49:56.717Z,84.20
2018-10-11T09:52:23.920Z,84.00
2018-10-11T09:54:51.163Z,82.80
2018-10-11T09:57:21.173Z,82.10
2018-10-11T09:59:48.365Z,81.00
2018-10-11T10:02:15.756Z,81.20
2018-10-11T10:04:47.200Z,81.10
2018-10-11T10:07:14.403Z,80.30
2018-10-11T10:09:42.378Z,80.70
2018-10-11T10:12:10.209Z,80.70
2018-10-11T10:14:37.656Z,80.90
2018-10-11T10:17:05.545Z,80.60
2018-10-11T10:19:32.733Z,80.70
2018-10-11T10:21:59.952Z,81.40
2018-10-11T10:24:27.301Z,80.50
2018-10-11T10:26:54.616Z,80.90
2018-10-11T10:29:21.746Z,81.60
2018-10-11T10:31:49.353Z,82.30
2018-10-11T10:34:16.621Z,81.70
2018-10-11T10:36:43.964Z,79.60
2018-10-11T10:39:11.150Z,79.30
2018-10-11T10:41:38.332Z,78.80
2018-10-11T10:44:05.530Z,78.90
2018-10-11T10:46:32.960Z,79.10
2018-10-11T10:49:00.140Z,78.20
2018-10-11T10:51:27.476Z,78.70
2018-10-11T10:53:54.639Z,78.70
2018-10-11T10:56:21.852Z,78.30
2018-10-11T10:58:49.341Z,78.20
2018-10-11T11:01:16.526Z,78.00
2018-10-11T11:03:43.709Z,78.10
2018-10-11T11:06:10.898Z,77.80
2018-10-11T11:08:38.086Z,76.80
2018-10-11T11:11:05.648Z,78.00
2018-10-11T11:13:32.878Z,77.00
2018-10-11T11:16:00.072Z,77.20
2018-10-11T11:18:27.255Z,77.00
2018-10-11T11:20:54.439Z,76.30
2018-10-11T11:23:21.641Z,74.80
2018-10-11T11:25:48.820Z,74.70
2018-10-11T11:28:16.009Z,75.60
2018-10-11T11:30:43.178Z,75.70
2018-10-11T11:33:10.369Z,75.90
2018-10-11T11:35:37.556Z,75.70
2018-10-11T11:38:04.773Z,76.10
2018-10-11T11:40:31.960Z,75.80
2018-10-11T11:43:00.681Z,75.80
2018-10-11T11:48:02.002Z,72.90
2018-10-11T11:50:29.199Z,72.80
2018-10-11T11:52:56.370Z,73.50
2018-10-11T11:55:23.546Z,74.30
2018-10-11T11:57:50.787Z,71.30
2018-10-11T12:00:18.166Z,71.40
2018-10-11T12:02:45.400Z,71.50
2018-10-11T12:05:12.605Z,70.80
2018-10-11T12:07:39.730Z,70.60
2018-10-11T12:10:06.933Z,72.40
2018-10-11T12:13:09.557Z,71.50
2018-10-11T12:15:37.571Z,69.60
2018-10-11T12:18:05.597Z,69.80
2018-10-11T12:20:33.929Z,71.20
2018-10-11T12:23:02.207Z,70.70
2018-10-11T12:25:29.782Z,69.50
2018-10-11T12:27:57.007Z,70.00
2018-10-11T12:30:24.186Z,69.50
2018-10-11T12:32:51.394Z,69.70
2018-10-11T12:35:19.705Z,68.30
2018-10-11T12:37:46.952Z,67.80
2018-10-11T12:40:14.524Z,67.90
2018-10-11T12:42:41.748Z,67.80
2018-10-11T12:45:09.970Z,66.90
2018-10-11T12:47:37.384Z,66.10
2018-10-11T12:50:05.042Z,65.80
2018-10-11T12:52:32.138Z,66.10
2018-10-11T12:54:59.415Z,66.20
2018-10-11T13:00:00.557Z,66.60
2018-10-11T13:02:27.723Z,67.60
2018-10-11T13:04:54.900Z,68.10
2018-10-11T13:07:22.076Z,68.20
2018-10-11T13:09:49.272Z,68.50
2018-10-11T13:12:16.441Z,67.80
2018-10-11T13:14:43.626Z,69.50
2018-10-11T13:17:10.798Z,68.90
2018-10-11T13:19:37.980Z,69.80
2018-10-11T13:22:05.164Z,69.70
2018-10-11T13:24:38.387Z,69.80
2018-10-11T13:27:06.356Z,70.60
2018-10-11T13:29:33.533Z,70.60
2018-10-11T13:32:01.801Z,70.30
2018-10-11T13:34:29.000Z,69.80
2018-10-11T13:36:56.198Z,69.40
2018-10-11T13:39:23.393Z,69.90
2018-10-11T13:41:50.630Z,69.70
2018-10-11T13:44:17.783Z,69.20
2018-10-11T13:46:44.954Z,69.50
2018-10-11T13:49:12.153Z,70.10
2018-10-11T13:51:39.332Z,70.20
2018-10-11T13:54:06.518Z,70.00
2018-10-11T13:56:33.704Z,69.00
2018-10-11T13:59:05.013Z,68.90
2018-10-11T14:01:28.173Z,69.20
2018-10-11T14:03:55.357Z,69.90
2018-10-11T14:06:23.350Z,69.40
2018-10-11T14:08:50.528Z,69.40
2018-10-11T14:11:17.729Z,70.20
2018-10-11T14:13:44.924Z,70.40
2018-10-11T14:16:12.106Z,71.00
2018-10-11T14:18:39.286Z,72.00
2018-10-11T14:21:07.545Z,72.80
2018-10-11T14:23:34.954Z,72.70
2018-10-11T14:26:02.102Z,72.70
2018-10-11T14:28:29.408Z,72.80
2018-10-11T14:30:56.590Z,73.00
2018-10-11T14:33:23.801Z,73.30
2018-10-11T14:35:50.997Z,73.50
2018-10-11T14:38:18.515Z,74.10
2018-10-11T14:40:45.717Z,73.90
2018-10-11T14:43:13.478Z,73.30
2018-10-11T14:45:40.662Z,73.00
2018-10-11T14:48:07.850Z,72.80
2018-10-11T14:50:35.034Z,72.90
2018-10-11T14:53:02.192Z,72.90
2018-10-11T14:55:29.381Z,73.30
2018-10-11T14:57:56.561Z,72.90
2018-10-11T15:00:23.774Z,72.90
2018-10-11T15:02:51.092Z,73.40
2018-10-11T15:05:18.239Z,72.90
2018-10-11T15:07:45.388Z,72.90
2018-10-11T15:10:12.592Z,72.80
2018-10-11T15:12:39.757Z,73.00
2018-10-11T15:15:06.958Z,72.90
2018-10-11T15:17:34.191Z,72.90
2018-10-11T15:20:01.448Z,72.80
2018-10-11T15:22:28.638Z,73.00
2018-10-11T15:24:55.844Z,73.10
2018-10-11T15:27:23.374Z,73.10
2018-10-11T15:29:50.637Z,72.80
2018-10-11T15:32:17.860Z,73.20
2018-10-11T15:34:45.026Z,73.30
2018-10-11T15:37:12.218Z,73.70
2018-10-11T15:39:39.381Z,74.10
2018-10-11T15:42:06.569Z,74.60
2018-10-11T15:44:33.742Z,75.10
2018-10-11T15:47:00.925Z,75.70
2018-10-11T15:49:28.091Z,78.80
2018-10-11T15:51:55.282Z,80.90
2018-10-11T15:54:22.501Z,82.20
2018-10-11T15:56:49.697Z,82.70
2018-10-11T15:59:16.878Z,83.60
2018-10-11T16:01:44.052Z,84.20
2018-10-11T16:04:11.228Z,85.50
2018-10-11T16:06:38.414Z,85.70
2018-10-11T16:09:07.209Z,86.70
2018-10-11T16:11:34.325Z,87.80
2018-10-11T16:14:01.540Z,86.10
2018-10-11T16:16:28.709Z,86.10
2018-10-11T16:18:55.896Z,86.10
2018-10-11T16:21:23.061Z,84.40
2018-10-11T16:23:50.240Z,84.50
2018-10-11T16:26:17.421Z,84.90
2018-10-11T16:28:44.604Z,84.70
2018-10-11T16:31:11.773Z,83.40
2018-10-11T16:33:38.945Z,83.10
2018-10-11T16:36:06.137Z,82.20
2018-10-11T16:38:33.316Z,81.40
2018-10-11T16:41:00.512Z,81.80
2018-10-11T16:43:27.693Z,81.60
2018-10-11T16:45:55.046Z,81.70
2018-10-11T16:48:22.220Z,81.70
2018-10-11T16:50:49.398Z,82.50
2018-10-11T16:53:16.587Z,82.40
2018-10-11T16:55:43.768Z,82.90
2018-10-11T16:58:11.029Z,83.00
2018-10-11T17:00:38.143Z,83.10
2018-10-11T17:03:05.365Z,83.50
2018-10-11T17:05:32.528Z,83.70
2018-10-11T17:07:59.748Z,83.90
2018-10-11T17:10:26.918Z,84.70
2018-10-11T17:12:54.109Z,84.30
2018-10-11T17:15:21.608Z,84.60
2018-10-11T17:17:48.822Z,84.00
2018-10-11T17:20:16.117Z,84.80
2018-10-11T17:22:43.337Z,85.10
2018-10-11T17:25:10.686Z,86.00
2018-10-11T17:27:37.931Z,86.40
2018-10-11T17:30:05.217Z,86.70
2018-10-11T17:35:13.437Z,87.60
2018-10-11T17:37:40.568Z,86.60
2018-10-11T17:40:08.016Z,87.60
2018-10-11T17:42:35.186Z,88.20
2018-10-11T17:45:02.597Z,87.10
2018-10-11T17:47:29.768Z,86.80
2018-10-11T17:49:56.948Z,87.30
2018-10-11T17:52:24.122Z,88.10
2018-10-11T17:54:54.208Z,88.40
2018-10-11T17:57:21.481Z,88.20
2018-10-11T17:59:48.705Z,88.60
2018-10-11T18:02:15.985Z,89.10
2018-10-11T18:04:43.169Z,88.90
2018-10-11T18:07:10.345Z,89.10
2018-10-11T18:09:37.629Z,88.60
2018-10-11T18:12:04.813Z,89.10
2018-10-11T18:14:32.016Z,89.10
2018-10-11T18:16:59.328Z,89.20
2018-10-11T18:19:26.506Z,89.00
2018-10-11T18:21:53.690Z,89.10
2018-10-11T18:24:20.867Z,89.30
2018-10-11T18:26:48.045Z,89.70
2018-10-11T18:29:15.432Z,89.70
2018-10-11T18:31:42.535Z,90.10
2018-10-11T18:34:09.724Z,90.20
2018-10-11T18:36:36.880Z,90.30
2018-10-11T18:39:08.493Z,90.40
2018-10-11T18:41:35.665Z,90.40
2018-10-11T18:44:02.837Z,90.60
2018-10-11T18:46:30.105Z,90.60
2018-10-11T18:48:57.290Z,90.60
2018-10-11T18:51:31.288Z,90.60
2018-10-11T18:53:58.470Z,90.80
2018-10-11T18:56:25.756Z,90.80
2018-10-11T18:58:53.001Z,90.90
2018-10-11T19:01:20.203Z,91.00
2018-10-11T19:03:47.385Z,91.00
2018-10-11T19:06:14.596Z,91.10
2018-10-11T19:08:41.754Z,91.10
2018-10-11T19:11:08.956Z,91.10
2018-10-11T19:13:36.134Z,91.20
2018-10-11T19:16:03.385Z,91.10
2018-10-11T19:18:30.552Z,91.10
2018-10-11T19:20:57.808Z,91.10
2018-10-11T19:23:25.044Z,91.00
2018-10-11T19:25:52.221Z,91.10
2018-10-11T19:28:19.938Z,91.20
2018-10-11T19:30:47.241Z,91.10
2018-10-11T19:33:14.412Z,91.10
2018-10-11T19:35:41.740Z,91.10
2018-10-11T19:38:08.922Z,91.10
2018-10-11T19:40:36.229Z,91.00
2018-10-11T19:43:03.406Z,90.70
2018-10-11T19:45:30.629Z,90.20
2018-10-11T19:47:57.957Z,89.00
2018-10-11T19:50:25.245Z,89.80
2018-10-11T19:52:52.437Z,90.20
2018-10-11T19:55:19.632Z,90.50
2018-10-11T19:57:46.836Z,90.70
2018-10-11T20:00:14.181Z,90.70
2018-10-11T20:02:41.393Z,90.80
2018-10-11T20:05:08.628Z,91.00
2018-10-11T20:07:35.834Z,91.30
2018-10-11T20:10:03.077Z,91.20
2018-10-11T20:12:30.295Z,90.70
2018-10-11T20:14:57.489Z,89.90
2018-10-11T20:17:24.721Z,88.10
2018-10-11T20:19:51.852Z,87.90
2018-10-11T20:22:19.033Z,88.30
2018-10-11T20:24:46.222Z,89.00
2018-10-11T20:27:13.413Z,89.00
2018-10-11T20:29:41.213Z,88.70
2018-10-11T20:32:09.136Z,89.00
2018-10-11T20:34:36.305Z,88.80
2018-10-11T20:37:03.490Z,89.80
2018-10-11T20:39:30.652Z,90.10
2018-10-11T20:41:57.962Z,90.30
2018-10-11T20:44:25.134Z,90.50
2018-10-11T20:46:52.536Z,90.80
2018-10-11T20:49:19.717Z,91.10
2018-10-11T20:51:46.908Z,91.40
2018-10-11T20:54:14.081Z,91.50
2018-10-11T20:56:41.265Z,91.50
2018-10-11T20:59:08.440Z,91.70
2018-10-11T21:01:35.669Z,91.80
2018-10-11T21:04:02.925Z,91.80
2018-10-11T21:06:30.125Z,92.00
2018-10-11T21:08:57.305Z,91.80
2018-10-11T21:11:24.481Z,92.00
2018-10-11T21:13:51.663Z,92.10
2018-10-11T21:16:18.879Z,92.30
2018-10-11T21:18:46.138Z,92.40
2018-10-11T21:21:13.380Z,92.30
2018-10-11T21:23:40.577Z,92.10
2018-10-11T21:26:07.793Z,92.20
2018-10-11T21:28:35.155Z,92.30
2018-10-11T21:31:02.322Z,92.40
2018-10-11T21:33:29.517Z,92.30
2018-10-11T21:35:56.686Z,92.30
2018-10-11T21:38:23.878Z,92.10
2018-10-11T21:40:51.084Z,92.10
2018-10-11T21:43:18.281Z,92.30
2018-10-11T21:45:52.280Z,92.60
2018-10-11T21:48:19.635Z,92.90
2018-10-11T21:50:46.814Z,93.10
2018-10-11T21:53:13.991Z,93.30
2018-10-11T21:55:41.173Z,93.20
2018-10-11T21:58:08.406Z,93.00
2018-10-11T22:00:41.319Z,93.20
2018-10-11T22:03:08.503Z,93.20
2018-10-11T22:05:35.701Z,93.30
2018-10-11T22:08:02.902Z,93.30
2018-10-11T22:10:30.089Z,93.60
2018-10-11T22:12:57.360Z,93.50
2018-10-11T22:15:24.689Z,93.40
2018-10-11T22:17:52.066Z,93.20
2018-10-11T22:20:19.238Z,93.30
2018-10-11T22:22:46.429Z,93.50
2018-10-11T22:25:13.605Z,92.20
2018-10-11T22:27:40.961Z,91.20
2018-10-11T22:30:08.421Z,90.80
2018-10-11T22:32:35.588Z,91.30
2018-10-11T22:35:02.853Z,91.60
2018-10-11T22:37:30.027Z,92.50
2018-10-11T22:39:57.224Z,92.80
2018-10-11T22:42:24.459Z,93.40
2018-10-11T22:44:51.724Z,93.60
2018-10-11T22:47:18.964Z,94.00
2018-10-11T22:49:46.153Z,94.10
2018-10-11T22:52:13.318Z,93.90
2018-10-11T22:54:40.526Z,93.80
2018-10-11T22:57:07.733Z,94.00
2018-10-11T22:59:34.940Z,94.20
2018-10-11T23:02:02.120Z,94.30
2018-10-11T23:04:29.301Z,94.50
2018-10-11T23:06:56.482Z,94.40
2018-10-11T23:09:23.657Z,93.40
2018-10-11T23:11:50.824Z,94.10
2018-10-11T23:14:18.022Z,94.30
2018-10-11T23:16:45.189Z,94.50
2018-10-11T23:19:12.382Z,94.70
2018-10-11T23:21:39.549Z,94.70
2018-10-11T23:24:06.792Z,94.90
2018-10-11T23:26:33.966Z,95.00
2018-10-11T23:29:01.159Z,94.90
2018-10-11T23:31:28.335Z,95.10
2018-10-11T23:33:56.518Z,95.10
2018-10-11T23:36:23.760Z,95.10
2018-10-11T23:38:50.940Z,95.20
2018-10-11T23:41:18.121Z,95.30
2018-10-11T23:43:45.300Z,95.80
2018-10-11T23:46:12.758Z,96.20
2018-10-11T23:48:39.914Z,96.00
2018-10-11T23:51:07.111Z,95.10
2018-10-11T23:53:34.271Z,94.20
2018-10-11T23:56:01.479Z,87.50
2018-10-11T23:58:28.651Z,87.50
